sensor_id;sensor_type;location;lat;lon;timestamp;temperature;humidity
83327;DHT22;73250;55.594;13.020;2024-01-07T00:01:08;20.20;27.60
83327;DHT22;73250;55.594;13.020;2024-01-07T00:03:36;20.20;27.60
83327;DHT22;73250;55.594;13.020;2024-01-07T00:06:03;20.20;27.60
83327;DHT22;73250;55.594;13.020;2024-01-07T00:08:30;20.20;27.70
83327;DHT22;73250;55.594;13.020;2024-01-07T00:10:57;20.20;27.60
83327;DHT22;73250;55.594;13.020;2024-01-07T00:13:23;20.20;27.60
83327;DHT22;73250;55.594;13.020;2024-01-07T00:15:50;20.20;27.60
83327;DHT22;73250;55.594;13.020;2024-01-07T00:18:19;20.20;27.60
83327;DHT22;73250;55.594;13.020;2024-01-07T00:20:47;20.20;27.70
83327;DHT22;73250;55.594;13.020;2024-01-07T00:23:13;20.20;27.70
83327;DHT22;73250;55.594;13.020;2024-01-07T00:25:40;20.20;27.70
83327;DHT22;73250;55.594;13.020;2024-01-07T00:28:07;20.20;27.60
83327;DHT22;73250;55.594;13.020;2024-01-07T00:30:34;20.20;27.70
83327;DHT22;73250;55.594;13.020;2024-01-07T00:33:00;20.20;27.70
83327;DHT22;73250;55.594;13.020;2024-01-07T00:35:27;20.20;27.60
83327;DHT22;73250;55.594;13.020;2024-01-07T00:37:55;20.20;27.60
83327;DHT22;73250;55.594;13.020;2024-01-07T00:40:22;20.20;27.60
83327;DHT22;73250;55.594;13.020;2024-01-07T00:42:49;20.20;27.70
83327;DHT22;73250;55.594;13.020;2024-01-07T00:45:16;20.20;27.70
83327;DHT22;73250;55.594;13.020;2024-01-07T00:47:43;20.10;27.60
83327;DHT22;73250;55.594;13.020;2024-01-07T00:50:10;20.20;27.60
83327;DHT22;73250;55.594;13.020;2024-01-07T00:52:36;20.20;27.70
83327;DHT22;73250;55.594;13.020;2024-01-07T00:55:05;20.20;27.60
83327;DHT22;73250;55.594;13.020;2024-01-07T00:57:32;20.20;27.60
83327;DHT22;73250;55.594;13.020;2024-01-07T01:00:00;20.20;27.50
83327;DHT22;73250;55.594;13.020;2024-01-07T01:02:26;20.20;27.60
83327;DHT22;73250;55.594;13.020;2024-01-07T01:04:53;20.20;27.60
83327;DHT22;73250;55.594;13.020;2024-01-07T01:07:19;20.20;27.60
83327;DHT22;73250;55.594;13.020;2024-01-07T01:09:45;20.20;27.60
83327;DHT22;73250;55.594;13.020;2024-01-07T01:12:13;20.10;27.50
83327;DHT22;73250;55.594;13.020;2024-01-07T01:14:40;20.20;27.50
83327;DHT22;73250;55.594;13.020;2024-01-07T01:17:07;20.20;27.60
83327;DHT22;73250;55.594;13.020;2024-01-07T01:19:34;20.10;27.60
83327;DHT22;73250;55.594;13.020;2024-01-07T01:22:00;20.20;27.60
83327;DHT22;73250;55.594;13.020;2024-01-07T01:24:27;20.10;27.50
83327;DHT22;73250;55.594;13.020;2024-01-07T01:26:54;20.20;27.50
83327;DHT22;73250;55.594;13.020;2024-01-07T01:29:22;20.10;27.50
83327;DHT22;73250;55.594;13.020;2024-01-07T01:31:48;20.20;27.50
83327;DHT22;73250;55.594;13.020;2024-01-07T01:34:15;20.10;27.50
83327;DHT22;73250;55.594;13.020;2024-01-07T01:36:42;20.10;27.40
83327;DHT22;73250;55.594;13.020;2024-01-07T01:39:08;20.10;27.40
83327;DHT22;73250;55.594;13.020;2024-01-07T01:41:35;20.10;27.50
83327;DHT22;73250;55.594;13.020;2024-01-07T01:44:02;20.10;27.50
83327;DHT22;73250;55.594;13.020;2024-01-07T01:46:30;20.20;27.50
83327;DHT22;73250;55.594;13.020;2024-01-07T01:48:57;20.10;27.50
83327;DHT22;73250;55.594;13.020;2024-01-07T01:51:24;20.10;27.50
83327;DHT22;73250;55.594;13.020;2024-01-07T01:53:51;20.10;27.50
83327;DHT22;73250;55.594;13.020;2024-01-07T01:56:18;20.10;27.50
83327;DHT22;73250;55.594;13.020;2024-01-07T01:58:46;20.10;27.40
83327;DHT22;73250;55.594;13.020;2024-01-07T02:01:13;20.10;27.40
83327;DHT22;73250;55.594;13.020;2024-01-07T02:03:41;20.10;27.40
83327;DHT22;73250;55.594;13.020;2024-01-07T02:06:08;20.10;27.50
83327;DHT22;73250;55.594;13.020;2024-01-07T02:08:36;20.10;27.50
83327;DHT22;73250;55.594;13.020;2024-01-07T02:11:15;20.10;27.40
83327;DHT22;73250;55.594;13.020;2024-01-07T02:13:42;20.10;27.40
83327;DHT22;73250;55.594;13.020;2024-01-07T02:16:08;20.10;27.40
83327;DHT22;73250;55.594;13.020;2024-01-07T02:18:35;20.10;27.50
83327;DHT22;73250;55.594;13.020;2024-01-07T02:21:03;20.10;27.40
83327;DHT22;73250;55.594;13.020;2024-01-07T02:23:30;20.10;27.40
83327;DHT22;73250;55.594;13.020;2024-01-07T02:25:58;20.10;27.40
83327;DHT22;73250;55.594;13.020;2024-01-07T02:28:25;20.10;27.40
83327;DHT22;73250;55.594;13.020;2024-01-07T02:30:51;20.10;27.50
83327;DHT22;73250;55.594;13.020;2024-01-07T02:33:18;20.10;27.40
83327;DHT22;73250;55.594;13.020;2024-01-07T02:35:45;20.10;27.40
83327;DHT22;73250;55.594;13.020;2024-01-07T02:38:11;20.10;27.40
83327;DHT22;73250;55.594;13.020;2024-01-07T02:40:38;20.10;27.40
83327;DHT22;73250;55.594;13.020;2024-01-07T02:43:06;20.10;27.40
83327;DHT22;73250;55.594;13.020;2024-01-07T02:45:32;20.10;27.40
83327;DHT22;73250;55.594;13.020;2024-01-07T02:47:59;20.10;27.40
83327;DHT22;73250;55.594;13.020;2024-01-07T02:50:26;20.10;27.40
83327;DHT22;73250;55.594;13.020;2024-01-07T02:52:52;20.10;27.40
83327;DHT22;73250;55.594;13.020;2024-01-07T02:55:19;20.10;27.40
83327;DHT22;73250;55.594;13.020;2024-01-07T02:57:46;20.10;27.40
83327;DHT22;73250;55.594;13.020;2024-01-07T03:00:17;20.10;27.40
83327;DHT22;73250;55.594;13.020;2024-01-07T03:02:44;20.10;27.40
83327;DHT22;73250;55.594;13.020;2024-01-07T03:05:10;20.10;27.40
83327;DHT22;73250;55.594;13.020;2024-01-07T03:07:38;20.10;27.40
83327;DHT22;73250;55.594;13.020;2024-01-07T03:10:06;20.10;27.40
83327;DHT22;73250;55.594;13.020;2024-01-07T03:12:32;20.10;27.40
83327;DHT22;73250;55.594;13.020;2024-01-07T03:14:59;20.10;27.30
83327;DHT22;73250;55.594;13.020;2024-01-07T03:17:27;20.10;27.30
83327;DHT22;73250;55.594;13.020;2024-01-07T03:19:54;20.10;27.40
83327;DHT22;73250;55.594;13.020;2024-01-07T03:22:20;20.10;27.40
83327;DHT22;73250;55.594;13.020;2024-01-07T03:24:47;20.10;27.90
83327;DHT22;73250;55.594;13.020;2024-01-07T03:27:14;20.10;27.30
83327;DHT22;73250;55.594;13.020;2024-01-07T03:29:40;20.10;27.40
83327;DHT22;73250;55.594;13.020;2024-01-07T03:32:07;20.10;27.30
83327;DHT22;73250;55.594;13.020;2024-01-07T03:34:36;20.10;27.40
83327;DHT22;73250;55.594;13.020;2024-01-07T03:37:02;20.10;27.30
83327;DHT22;73250;55.594;13.020;2024-01-07T03:39:32;20.00;27.20
83327;DHT22;73250;55.594;13.020;2024-01-07T03:41:59;20.10;27.10
83327;DHT22;73250;55.594;13.020;2024-01-07T03:44:25;20.10;27.10
83327;DHT22;73250;55.594;13.020;2024-01-07T03:46:52;20.10;27.10
83327;DHT22;73250;55.594;13.020;2024-01-07T03:49:19;20.10;27.00
83327;DHT22;73250;55.594;13.020;2024-01-07T03:51:46;20.10;26.90
83327;DHT22;73250;55.594;13.020;2024-01-07T03:54:13;20.10;26.90
83327;DHT22;73250;55.594;13.020;2024-01-07T03:56:40;20.10;26.80
83327;DHT22;73250;55.594;13.020;2024-01-07T03:59:06;20.10;26.80
83327;DHT22;73250;55.594;13.020;2024-01-07T04:01:33;20.10;26.80
83327;DHT22;73250;55.594;13.020;2024-01-07T04:04:00;20.10;26.70
83327;DHT22;73250;55.594;13.020;2024-01-07T04:06:27;20.10;26.60
83327;DHT22;73250;55.594;13.020;2024-01-07T04:08:55;20.10;26.60
83327;DHT22;73250;55.594;13.020;2024-01-07T04:11:21;20.10;26.60
83327;DHT22;73250;55.594;13.020;2024-01-07T04:13:48;20.10;26.60
83327;DHT22;73250;55.594;13.020;2024-01-07T04:16:18;20.10;26.60
83327;DHT22;73250;55.594;13.020;2024-01-07T04:18:45;20.10;26.50
83327;DHT22;73250;55.594;13.020;2024-01-07T04:21:12;20.10;26.50
83327;DHT22;73250;55.594;13.020;2024-01-07T04:23:39;20.00;26.50
83327;DHT22;73250;55.594;13.020;2024-01-07T04:26:07;20.10;26.40
83327;DHT22;73250;55.594;13.020;2024-01-07T04:28:34;20.10;26.40
83327;DHT22;73250;55.594;13.020;2024-01-07T04:31:00;20.10;26.30
83327;DHT22;73250;55.594;13.020;2024-01-07T04:33:27;20.10;26.30
83327;DHT22;73250;55.594;13.020;2024-01-07T04:35:54;20.10;26.30
83327;DHT22;73250;55.594;13.020;2024-01-07T04:38:23;20.10;26.30
83327;DHT22;73250;55.594;13.020;2024-01-07T04:40:50;20.10;26.30
83327;DHT22;73250;55.594;13.020;2024-01-07T04:43:18;20.10;26.20
83327;DHT22;73250;55.594;13.020;2024-01-07T04:45:45;20.00;26.10
83327;DHT22;73250;55.594;13.020;2024-01-07T04:48:12;20.00;26.10
83327;DHT22;73250;55.594;13.020;2024-01-07T04:50:39;20.10;26.20
83327;DHT22;73250;55.594;13.020;2024-01-07T04:53:07;20.10;26.10
83327;DHT22;73250;55.594;13.020;2024-01-07T04:55:34;20.00;26.00
83327;DHT22;73250;55.594;13.020;2024-01-07T04:58:00;20.00;26.00
83327;DHT22;73250;55.594;13.020;2024-01-07T05:00:30;20.00;26.10
83327;DHT22;73250;55.594;13.020;2024-01-07T05:02:57;20.10;26.10
83327;DHT22;73250;55.594;13.020;2024-01-07T05:05:24;20.00;25.90
83327;DHT22;73250;55.594;13.020;2024-01-07T05:07:50;20.10;26.00
83327;DHT22;73250;55.594;13.020;2024-01-07T05:10:17;20.00;26.00
83327;DHT22;73250;55.594;13.020;2024-01-07T05:12:44;20.00;26.00
83327;DHT22;73250;55.594;13.020;2024-01-07T05:15:11;20.00;25.90
83327;DHT22;73250;55.594;13.020;2024-01-07T05:17:39;20.00;25.90
83327;DHT22;73250;55.594;13.020;2024-01-07T05:20:07;20.00;25.90
83327;DHT22;73250;55.594;13.020;2024-01-07T05:22:34;20.10;25.90
83327;DHT22;73250;55.594;13.020;2024-01-07T05:25:01;20.10;25.90
83327;DHT22;73250;55.594;13.020;2024-01-07T05:27:27;20.00;25.80
83327;DHT22;73250;55.594;13.020;2024-01-07T05:29:54;20.00;25.80
83327;DHT22;73250;55.594;13.020;2024-01-07T05:32:21;20.00;25.70
83327;DHT22;73250;55.594;13.020;2024-01-07T05:34:49;20.00;25.70
83327;DHT22;73250;55.594;13.020;2024-01-07T05:37:16;20.00;25.70
83327;DHT22;73250;55.594;13.020;2024-01-07T05:39:42;20.00;25.80
83327;DHT22;73250;55.594;13.020;2024-01-07T05:42:09;20.00;25.70
83327;DHT22;73250;55.594;13.020;2024-01-07T05:44:36;20.00;25.70
83327;DHT22;73250;55.594;13.020;2024-01-07T05:47:03;20.00;25.70
83327;DHT22;73250;55.594;13.020;2024-01-07T05:49:29;20.00;25.70
83327;DHT22;73250;55.594;13.020;2024-01-07T05:51:57;20.00;25.70
83327;DHT22;73250;55.594;13.020;2024-01-07T05:54:24;20.00;25.70
83327;DHT22;73250;55.594;13.020;2024-01-07T05:56:51;20.00;25.60
83327;DHT22;73250;55.594;13.020;2024-01-07T05:59:18;20.00;25.60
83327;DHT22;73250;55.594;13.020;2024-01-07T06:01:45;20.00;25.60
83327;DHT22;73250;55.594;13.020;2024-01-07T06:04:11;20.00;25.60
83327;DHT22;73250;55.594;13.020;2024-01-07T06:06:38;20.00;25.60
83327;DHT22;73250;55.594;13.020;2024-01-07T06:09:09;20.00;25.60
83327;DHT22;73250;55.594;13.020;2024-01-07T06:11:35;20.00;25.60
83327;DHT22;73250;55.594;13.020;2024-01-07T06:14:02;20.00;25.50
83327;DHT22;73250;55.594;13.020;2024-01-07T06:16:29;20.00;25.50
83327;DHT22;73250;55.594;13.020;2024-01-07T06:18:55;20.00;25.50
83327;DHT22;73250;55.594;13.020;2024-01-07T06:21:22;20.00;25.50
83327;DHT22;73250;55.594;13.020;2024-01-07T06:23:49;20.00;25.60
83327;DHT22;73250;55.594;13.020;2024-01-07T06:26:17;20.00;25.60
83327;DHT22;73250;55.594;13.020;2024-01-07T06:28:43;20.00;25.50
83327;DHT22;73250;55.594;13.020;2024-01-07T06:31:10;20.00;25.50
83327;DHT22;73250;55.594;13.020;2024-01-07T06:33:37;20.00;25.50
83327;DHT22;73250;55.594;13.020;2024-01-07T06:36:04;20.00;25.50
83327;DHT22;73250;55.594;13.020;2024-01-07T06:38:30;20.00;25.50
83327;DHT22;73250;55.594;13.020;2024-01-07T06:40:57;20.00;25.50
83327;DHT22;73250;55.594;13.020;2024-01-07T06:43:27;20.00;25.50
83327;DHT22;73250;55.594;13.020;2024-01-07T06:45:54;20.00;25.50
83327;DHT22;73250;55.594;13.020;2024-01-07T06:48:21;20.00;25.50
83327;DHT22;73250;55.594;13.020;2024-01-07T06:50:47;20.00;25.50
83327;DHT22;73250;55.594;13.020;2024-01-07T06:53:14;20.00;25.50
83327;DHT22;73250;55.594;13.020;2024-01-07T06:55:41;20.00;25.50
83327;DHT22;73250;55.594;13.020;2024-01-07T06:58:08;20.00;25.40
83327;DHT22;73250;55.594;13.020;2024-01-07T07:00:36;20.00;25.40
83327;DHT22;73250;55.594;13.020;2024-01-07T07:03:03;20.00;25.40
83327;DHT22;73250;55.594;13.020;2024-01-07T07:05:30;20.00;25.50
83327;DHT22;73250;55.594;13.020;2024-01-07T07:07:57;20.00;25.40
83327;DHT22;73250;55.594;13.020;2024-01-07T07:10:24;20.00;25.40
83327;DHT22;73250;55.594;13.020;2024-01-07T07:12:50;20.00;25.40
83327;DHT22;73250;55.594;13.020;2024-01-07T07:15:17;20.00;25.40
83327;DHT22;73250;55.594;13.020;2024-01-07T07:17:45;20.00;25.40
83327;DHT22;73250;55.594;13.020;2024-01-07T07:20:12;20.00;25.40
83327;DHT22;73250;55.594;13.020;2024-01-07T07:22:39;20.00;25.40
83327;DHT22;73250;55.594;13.020;2024-01-07T07:25:06;20.00;25.40
83327;DHT22;73250;55.594;13.020;2024-01-07T07:27:33;20.00;25.40
83327;DHT22;73250;55.594;13.020;2024-01-07T07:29:59;20.00;25.30
83327;DHT22;73250;55.594;13.020;2024-01-07T07:32:26;20.00;25.40
83327;DHT22;73250;55.594;13.020;2024-01-07T07:34:54;20.00;25.40
83327;DHT22;73250;55.594;13.020;2024-01-07T07:37:21;20.00;25.40
83327;DHT22;73250;55.594;13.020;2024-01-07T07:39:47;19.90;25.30
83327;DHT22;73250;55.594;13.020;2024-01-07T07:42:14;20.00;25.30
83327;DHT22;73250;55.594;13.020;2024-01-07T07:44:41;20.00;25.30
83327;DHT22;73250;55.594;13.020;2024-01-07T07:47:09;20.00;25.30
83327;DHT22;73250;55.594;13.020;2024-01-07T07:49:37;20.00;25.30
83327;DHT22;73250;55.594;13.020;2024-01-07T07:52:06;20.00;25.30
83327;DHT22;73250;55.594;13.020;2024-01-07T07:54:33;20.00;25.30
83327;DHT22;73250;55.594;13.020;2024-01-07T07:57:00;20.00;25.30
83327;DHT22;73250;55.594;13.020;2024-01-07T07:59:27;20.00;25.30
83327;DHT22;73250;55.594;13.020;2024-01-07T08:01:54;20.00;25.20
83327;DHT22;73250;55.594;13.020;2024-01-07T08:04:21;20.00;25.30
83327;DHT22;73250;55.594;13.020;2024-01-07T08:06:47;20.00;25.30
83327;DHT22;73250;55.594;13.020;2024-01-07T08:09:15;20.00;25.20
83327;DHT22;73250;55.594;13.020;2024-01-07T08:11:42;20.00;25.20
83327;DHT22;73250;55.594;13.020;2024-01-07T08:14:08;20.00;25.20
83327;DHT22;73250;55.594;13.020;2024-01-07T08:16:35;20.00;25.20
83327;DHT22;73250;55.594;13.020;2024-01-07T08:19:02;20.00;25.20
83327;DHT22;73250;55.594;13.020;2024-01-07T08:21:28;20.00;25.20
83327;DHT22;73250;55.594;13.020;2024-01-07T08:23:55;20.00;25.20
83327;DHT22;73250;55.594;13.020;2024-01-07T08:26:23;20.00;25.20
83327;DHT22;73250;55.594;13.020;2024-01-07T08:28:49;20.00;25.20
83327;DHT22;73250;55.594;13.020;2024-01-07T08:31:16;20.00;25.20
83327;DHT22;73250;55.594;13.020;2024-01-07T08:33:43;20.00;25.20
83327;DHT22;73250;55.594;13.020;2024-01-07T08:36:09;20.00;25.20
83327;DHT22;73250;55.594;13.020;2024-01-07T08:38:36;20.00;25.20
83327;DHT22;73250;55.594;13.020;2024-01-07T08:41:03;20.00;25.20
83327;DHT22;73250;55.594;13.020;2024-01-07T08:43:31;20.00;25.20
83327;DHT22;73250;55.594;13.020;2024-01-07T08:45:58;20.00;25.20
83327;DHT22;73250;55.594;13.020;2024-01-07T08:48:24;20.00;25.10
83327;DHT22;73250;55.594;13.020;2024-01-07T08:50:51;20.00;25.20
83327;DHT22;73250;55.594;13.020;2024-01-07T08:53:18;20.00;25.20
83327;DHT22;73250;55.594;13.020;2024-01-07T08:55:45;20.00;25.20
83327;DHT22;73250;55.594;13.020;2024-01-07T08:58:12;20.00;25.20
83327;DHT22;73250;55.594;13.020;2024-01-07T09:00:41;20.00;25.10
83327;DHT22;73250;55.594;13.020;2024-01-07T09:03:08;20.00;25.10
83327;DHT22;73250;55.594;13.020;2024-01-07T09:05:34;20.00;25.10
83327;DHT22;73250;55.594;13.020;2024-01-07T09:08:01;20.00;25.20
83327;DHT22;73250;55.594;13.020;2024-01-07T09:10:28;20.00;25.20
83327;DHT22;73250;55.594;13.020;2024-01-07T09:12:54;20.00;25.10
83327;DHT22;73250;55.594;13.020;2024-01-07T09:15:21;20.00;25.10
83327;DHT22;73250;55.594;13.020;2024-01-07T09:17:49;20.00;25.10
83327;DHT22;73250;55.594;13.020;2024-01-07T09:20:16;20.00;25.20
83327;DHT22;73250;55.594;13.020;2024-01-07T09:22:43;20.00;25.20
83327;DHT22;73250;55.594;13.020;2024-01-07T09:25:10;20.00;25.20
83327;DHT22;73250;55.594;13.020;2024-01-07T09:27:38;20.00;25.20
83327;DHT22;73250;55.594;13.020;2024-01-07T09:30:05;20.00;25.10
83327;DHT22;73250;55.594;13.020;2024-01-07T09:32:32;19.90;25.10
83327;DHT22;73250;55.594;13.020;2024-01-07T09:35:00;20.00;25.20
83327;DHT22;73250;55.594;13.020;2024-01-07T09:37:27;20.00;25.20
83327;DHT22;73250;55.594;13.020;2024-01-07T09:39:53;20.00;25.10
83327;DHT22;73250;55.594;13.020;2024-01-07T09:42:20;20.00;25.10
83327;DHT22;73250;55.594;13.020;2024-01-07T09:44:48;20.00;25.10
83327;DHT22;73250;55.594;13.020;2024-01-07T09:47:16;20.00;25.10
83327;DHT22;73250;55.594;13.020;2024-01-07T09:49:44;19.90;25.10
83327;DHT22;73250;55.594;13.020;2024-01-07T09:52:12;20.00;25.20
83327;DHT22;73250;55.594;13.020;2024-01-07T09:54:39;20.00;25.30
83327;DHT22;73250;55.594;13.020;2024-01-07T09:57:07;20.00;25.30
83327;DHT22;73250;55.594;13.020;2024-01-07T09:59:34;19.90;25.30
83327;DHT22;73250;55.594;13.020;2024-01-07T10:02:02;20.00;25.30
83327;DHT22;73250;55.594;13.020;2024-01-07T10:04:29;20.00;25.40
83327;DHT22;73250;55.594;13.020;2024-01-07T10:06:56;20.00;25.40
83327;DHT22;73250;55.594;13.020;2024-01-07T10:09:24;20.00;25.40
83327;DHT22;73250;55.594;13.020;2024-01-07T10:11:54;20.00;25.40
83327;DHT22;73250;55.594;13.020;2024-01-07T10:14:21;19.90;25.40
83327;DHT22;73250;55.594;13.020;2024-01-07T10:16:48;20.00;25.50
83327;DHT22;73250;55.594;13.020;2024-01-07T10:19:19;19.90;25.50
83327;DHT22;73250;55.594;13.020;2024-01-07T10:21:46;20.00;25.50
83327;DHT22;73250;55.594;13.020;2024-01-07T10:24:13;20.00;25.50
83327;DHT22;73250;55.594;13.020;2024-01-07T10:26:41;20.00;25.50
83327;DHT22;73250;55.594;13.020;2024-01-07T10:29:08;20.00;25.50
83327;DHT22;73250;55.594;13.020;2024-01-07T10:31:37;20.00;25.50
83327;DHT22;73250;55.594;13.020;2024-01-07T10:34:07;19.90;25.50
83327;DHT22;73250;55.594;13.020;2024-01-07T10:36:33;20.00;25.60
83327;DHT22;73250;55.594;13.020;2024-01-07T10:39:00;20.00;25.60
83327;DHT22;73250;55.594;13.020;2024-01-07T10:41:28;20.00;25.60
83327;DHT22;73250;55.594;13.020;2024-01-07T10:43:57;20.00;25.60
83327;DHT22;73250;55.594;13.020;2024-01-07T10:46:26;20.00;25.60
83327;DHT22;73250;55.594;13.020;2024-01-07T10:49:00;20.00;25.60
83327;DHT22;73250;55.594;13.020;2024-01-07T10:51:28;20.00;25.70
83327;DHT22;73250;55.594;13.020;2024-01-07T10:53:57;19.90;25.60
83327;DHT22;73250;55.594;13.020;2024-01-07T10:56:25;20.00;25.60
83327;DHT22;73250;55.594;13.020;2024-01-07T10:58:58;20.00;25.70
83327;DHT22;73250;55.594;13.020;2024-01-07T11:01:26;20.00;25.70
83327;DHT22;73250;55.594;13.020;2024-01-07T11:03:59;19.90;25.70
83327;DHT22;73250;55.594;13.020;2024-01-07T11:06:33;20.00;25.70
83327;DHT22;73250;55.594;13.020;2024-01-07T11:09:06;20.00;25.70
83327;DHT22;73250;55.594;13.020;2024-01-07T11:11:39;20.00;25.70
83327;DHT22;73250;55.594;13.020;2024-01-07T11:14:36;19.90;25.70
83327;DHT22;73250;55.594;13.020;2024-01-07T11:17:05;20.00;25.70
83327;DHT22;73250;55.594;13.020;2024-01-07T11:19:32;19.90;25.70
83327;DHT22;73250;55.594;13.020;2024-01-07T11:22:26;19.90;25.70
83327;DHT22;73250;55.594;13.020;2024-01-07T11:24:54;20.00;25.70
83327;DHT22;73250;55.594;13.020;2024-01-07T11:27:22;19.90;25.70
83327;DHT22;73250;55.594;13.020;2024-01-07T11:29:57;19.90;25.70
83327;DHT22;73250;55.594;13.020;2024-01-07T11:32:27;19.90;25.70
83327;DHT22;73250;55.594;13.020;2024-01-07T11:34:55;19.90;25.80
83327;DHT22;73250;55.594;13.020;2024-01-07T11:37:25;19.90;25.80
83327;DHT22;73250;55.594;13.020;2024-01-07T11:39:55;19.90;25.80
83327;DHT22;73250;55.594;13.020;2024-01-07T11:42:22;19.90;25.80
83327;DHT22;73250;55.594;13.020;2024-01-07T11:44:50;19.90;25.80
83327;DHT22;73250;55.594;13.020;2024-01-07T11:47:19;19.90;25.80
83327;DHT22;73250;55.594;13.020;2024-01-07T11:49:47;19.90;25.90
83327;DHT22;73250;55.594;13.020;2024-01-07T11:52:15;19.90;25.90
83327;DHT22;73250;55.594;13.020;2024-01-07T11:54:42;19.90;25.90
83327;DHT22;73250;55.594;13.020;2024-01-07T11:57:10;20.00;25.90
83327;DHT22;73250;55.594;13.020;2024-01-07T11:59:37;20.00;25.90
83327;DHT22;73250;55.594;13.020;2024-01-07T12:02:04;19.90;25.90
83327;DHT22;73250;55.594;13.020;2024-01-07T12:04:32;19.90;25.90
83327;DHT22;73250;55.594;13.020;2024-01-07T12:07:00;19.90;26.00
83327;DHT22;73250;55.594;13.020;2024-01-07T12:09:29;19.90;26.00
83327;DHT22;73250;55.594;13.020;2024-01-07T12:11:55;19.90;26.00
83327;DHT22;73250;55.594;13.020;2024-01-07T12:14:22;20.00;26.00
83327;DHT22;73250;55.594;13.020;2024-01-07T12:16:49;19.90;26.00
83327;DHT22;73250;55.594;13.020;2024-01-07T12:19:16;19.90;26.00
83327;DHT22;73250;55.594;13.020;2024-01-07T12:21:44;19.90;26.00
83327;DHT22;73250;55.594;13.020;2024-01-07T12:24:13;19.90;26.00
83327;DHT22;73250;55.594;13.020;2024-01-07T12:26:39;19.90;26.00
83327;DHT22;73250;55.594;13.020;2024-01-07T12:29:06;19.90;26.00
83327;DHT22;73250;55.594;13.020;2024-01-07T12:31:35;19.90;26.00
83327;DHT22;73250;55.594;13.020;2024-01-07T12:34:04;19.90;26.00
83327;DHT22;73250;55.594;13.020;2024-01-07T12:36:30;19.90;26.00
83327;DHT22;73250;55.594;13.020;2024-01-07T12:38:59;19.90;26.00
83327;DHT22;73250;55.594;13.020;2024-01-07T12:41:25;19.90;26.00
83327;DHT22;73250;55.594;13.020;2024-01-07T12:43:52;19.90;26.00
83327;DHT22;73250;55.594;13.020;2024-01-07T12:46:19;19.90;26.50
83327;DHT22;73250;55.594;13.020;2024-01-07T12:48:45;19.90;26.00
83327;DHT22;73250;55.594;13.020;2024-01-07T12:51:12;19.90;26.00
83327;DHT22;73250;55.594;13.020;2024-01-07T12:53:39;19.90;26.00
83327;DHT22;73250;55.594;13.020;2024-01-07T12:56:07;19.90;26.00
83327;DHT22;73250;55.594;13.020;2024-01-07T12:58:34;19.90;26.00
83327;DHT22;73250;55.594;13.020;2024-01-07T13:01:01;19.90;26.00
83327;DHT22;73250;55.594;13.020;2024-01-07T13:03:27;19.90;26.00
83327;DHT22;73250;55.594;13.020;2024-01-07T13:05:54;19.90;26.00
83327;DHT22;73250;55.594;13.020;2024-01-07T13:08:21;19.90;26.00
83327;DHT22;73250;55.594;13.020;2024-01-07T13:10:50;19.90;26.00
83327;DHT22;73250;55.594;13.020;2024-01-07T13:13:18;19.90;26.00
83327;DHT22;73250;55.594;13.020;2024-01-07T13:15:45;19.90;26.00
83327;DHT22;73250;55.594;13.020;2024-01-07T13:18:11;19.90;26.00
83327;DHT22;73250;55.594;13.020;2024-01-07T13:20:38;19.90;26.00
83327;DHT22;73250;55.594;13.020;2024-01-07T13:23:06;19.90;26.00
83327;DHT22;73250;55.594;13.020;2024-01-07T13:25:32;19.90;26.10
83327;DHT22;73250;55.594;13.020;2024-01-07T13:27:59;19.90;26.10
83327;DHT22;73250;55.594;13.020;2024-01-07T13:30:27;19.90;26.10
83327;DHT22;73250;55.594;13.020;2024-01-07T13:32:53;19.90;26.10
83327;DHT22;73250;55.594;13.020;2024-01-07T13:35:22;19.90;26.00
83327;DHT22;73250;55.594;13.020;2024-01-07T13:37:49;19.90;26.10
83327;DHT22;73250;55.594;13.020;2024-01-07T13:40:17;19.90;26.10
83327;DHT22;73250;55.594;13.020;2024-01-07T13:42:44;19.90;26.10
83327;DHT22;73250;55.594;13.020;2024-01-07T13:45:11;19.90;26.10
83327;DHT22;73250;55.594;13.020;2024-01-07T13:47:40;19.90;26.10
83327;DHT22;73250;55.594;13.020;2024-01-07T13:50:07;19.90;26.10
83327;DHT22;73250;55.594;13.020;2024-01-07T13:52:35;19.90;26.10
83327;DHT22;73250;55.594;13.020;2024-01-07T13:55:02;19.90;26.10
83327;DHT22;73250;55.594;13.020;2024-01-07T13:57:29;19.90;26.10
83327;DHT22;73250;55.594;13.020;2024-01-07T13:59:56;19.90;26.10
83327;DHT22;73250;55.594;13.020;2024-01-07T14:02:22;19.90;26.10
83327;DHT22;73250;55.594;13.020;2024-01-07T14:04:50;19.90;26.10
83327;DHT22;73250;55.594;13.020;2024-01-07T14:07:17;19.90;26.10
83327;DHT22;73250;55.594;13.020;2024-01-07T14:09:44;19.90;26.20
83327;DHT22;73250;55.594;13.020;2024-01-07T14:12:11;19.90;26.20
83327;DHT22;73250;55.594;13.020;2024-01-07T14:14:38;19.90;26.10
83327;DHT22;73250;55.594;13.020;2024-01-07T14:17:05;19.90;26.20
83327;DHT22;73250;55.594;13.020;2024-01-07T14:19:33;19.90;26.20
83327;DHT22;73250;55.594;13.020;2024-01-07T14:22:01;19.90;26.20
83327;DHT22;73250;55.594;13.020;2024-01-07T14:24:28;19.90;26.20
83327;DHT22;73250;55.594;13.020;2024-01-07T14:26:54;19.90;26.20
83327;DHT22;73250;55.594;13.020;2024-01-07T14:29:21;19.90;26.20
83327;DHT22;73250;55.594;13.020;2024-01-07T14:31:48;19.90;26.20
83327;DHT22;73250;55.594;13.020;2024-01-07T14:34:15;19.90;26.20
83327;DHT22;73250;55.594;13.020;2024-01-07T14:36:41;19.90;26.20
83327;DHT22;73250;55.594;13.020;2024-01-07T14:39:10;19.90;26.20
83327;DHT22;73250;55.594;13.020;2024-01-07T14:41:38;19.90;26.20
83327;DHT22;73250;55.594;13.020;2024-01-07T14:44:05;19.90;26.10
83327;DHT22;73250;55.594;13.020;2024-01-07T14:46:32;19.90;26.10
83327;DHT22;73250;55.594;13.020;2024-01-07T14:48:58;19.90;26.10
83327;DHT22;73250;55.594;13.020;2024-01-07T14:51:25;19.90;26.00
83327;DHT22;73250;55.594;13.020;2024-01-07T14:53:52;19.90;26.00
83327;DHT22;73250;55.594;13.020;2024-01-07T14:56:21;19.90;26.00
83327;DHT22;73250;55.594;13.020;2024-01-07T14:58:48;19.90;26.00
83327;DHT22;73250;55.594;13.020;2024-01-07T15:01:16;19.90;26.00
83327;DHT22;73250;55.594;13.020;2024-01-07T15:03:44;19.90;26.00
83327;DHT22;73250;55.594;13.020;2024-01-07T15:06:10;19.90;26.00
83327;DHT22;73250;55.594;13.020;2024-01-07T15:08:40;19.90;26.00
83327;DHT22;73250;55.594;13.020;2024-01-07T15:11:07;19.90;26.00
83327;DHT22;73250;55.594;13.020;2024-01-07T15:13:35;19.90;25.90
83327;DHT22;73250;55.594;13.020;2024-01-07T15:16:03;19.90;25.90